ICAO code: LHPR | IATA code: QGY | SITA: QGYAPXH | AFTN: LHPRZPZX

Időjárási adatok

METAR LHPR 252045Z AUTO 09004KT 070V190 CAVOK 20/17 Q1014=
TAF LHPR 252000Z NIL=
Nem volt érdemleges időjárási jelenség az elmúlt órában
2024-06-25 20:40:00 UTC
-

Hőmérséklet
19.6 °C
 
Harmatpont
16.7 °C
 
Rel. páratartalom
83%
 
QNH
1014.8 hPa
 
Szélsebesség
2.2 m/s
Max
2.4 m/s
Szélirány
100°
 
Csapadék (1 óra)
0.0 mm
 
Látótávolság
13710 m
 
RVR
>1500 m RWY29
 
1. felhőréteg mennyisége
0 octa
 
1. felhőréteg alapja
m